Time;durP1;ratioP1;P1;durP2;ratioP2;P2;SDS_P1;SDS_P2;PMS_P1;PMS_P2;Temp;Humidity;BMP_temperature;BMP_pressure;BME280_temperature;BME280_humidity;BME280_pressure;Samples;Min_cycle;Max_cycle;Signal;HPM_P1;HPM_P2
2023/09/13 00:01:12;;;;;;;6.70;4.37;;;;;;;;;;5033509;28;20481;-55
2023/09/13 00:03:39;;;;;;;4.80;4.30;;;;;;;;;;5033875;28;20812;-55
2023/09/13 00:06:06;;;;;;;6.83;3.73;;;;;;;;;;5033357;28;20478;-56
2023/09/13 00:08:34;;;;;;;5.30;3.47;;;;;;;;;;5033122;28;21043;-55
2023/09/13 00:11:04;;;;;;;5.30;4.43;;;;;;;;;;5033257;28;20488;-58
2023/09/13 00:13:34;;;;;;;6.50;4.20;;;;;;;;;;5032072;28;20936;-55
2023/09/13 00:16:01;;;;;;;5.73;3.83;;;;;;;;;;5033239;28;21003;-56
2023/09/13 00:18:28;;;;;;;6.00;4.67;;;;;;;;;;5032823;28;20478;-56
2023/09/13 00:20:55;;;;;;;6.40;4.13;;;;;;;;;;5032893;28;20478;-57
2023/09/13 00:23:22;;;;;;;4.80;3.73;;;;;;;;;;5033262;28;20529;-55
2023/09/13 00:25:50;;;;;;;5.97;3.87;;;;;;;;;;5032969;28;20482;-56
2023/09/13 00:28:17;;;;;;;5.67;3.60;;;;;;;;;;5032979;28;20469;-54
2023/09/13 00:30:46;;;;;;;5.03;3.83;;;;;;;;;;5033524;28;20497;-56
2023/09/13 00:33:13;;;;;;;4.63;3.73;;;;;;;;;;5033007;28;20994;-56
2023/09/13 00:35:40;;;;;;;6.13;3.70;;;;;;;;;;5033245;28;20446;-54
2023/09/13 00:38:08;;;;;;;4.90;3.40;;;;;;;;;;5032645;28;20927;-56
2023/09/13 00:40:35;;;;;;;8.83;4.30;;;;;;;;;;5032551;28;20515;-55
2023/09/13 00:43:02;;;;;;;4.63;4.07;;;;;;;;;;5032334;28;20446;-56
2023/09/13 00:45:31;;;;;;;6.57;3.97;;;;;;;;;;5032631;28;20442;-57
2023/09/13 00:48:00;;;;;;;6.00;3.63;;;;;;;;;;5032515;28;20490;-56
2023/09/13 00:50:28;;;;;;;6.97;3.73;;;;;;;;;;5032662;28;20521;-56
2023/09/13 00:52:55;;;;;;;5.97;4.17;;;;;;;;;;5032503;28;20871;-56
2023/09/13 00:55:24;;;;;;;6.80;3.83;;;;;;;;;;5032695;28;20527;-57
2023/09/13 00:57:52;;;;;;;5.80;3.63;;;;;;;;;;5032124;28;20438;-55
2023/09/13 01:00:19;;;;;;;5.20;3.60;;;;;;;;;;5032438;28;20980;-56
2023/09/13 01:02:47;;;;;;;5.83;3.30;;;;;;;;;;5032363;28;20944;-55
2023/09/13 01:05:16;;;;;;;4.40;4.00;;;;;;;;;;5032768;28;20535;-56
2023/09/13 01:07:44;;;;;;;6.20;4.00;;;;;;;;;;5032071;28;20470;-55
2023/09/13 01:10:11;;;;;;;4.00;2.97;;;;;;;;;;5032332;28;20995;-55
2023/09/13 01:12:38;;;;;;;7.00;3.70;;;;;;;;;;5032241;28;20510;-54
2023/09/13 01:15:07;;;;;;;5.07;3.70;;;;;;;;;;5032214;28;20446;-55
2023/09/13 01:17:39;;;;;;;5.30;4.60;;;;;;;;;;5031501;28;20446;-54
2023/09/13 01:20:12;;;;;;;5.60;4.37;;;;;;;;;;5032269;28;20461;-56
2023/09/13 01:23:02;;;;;;;5.67;4.33;;;;;;;;;;5032030;28;20985;-55
2023/09/13 01:25:41;;;;;;;4.43;3.60;;;;;;;;;;5032048;28;20449;-56
2023/09/13 01:28:13;;;;;;;5.30;4.33;;;;;;;;;;5031484;28;20472;-55
2023/09/13 01:30:42;;;;;;;5.70;5.03;;;;;;;;;;5031889;28;20485;-54
2023/09/13 01:33:09;;;;;;;5.97;4.10;;;;;;;;;;5031865;28;20798;-54
2023/09/13 01:35:36;;;;;;;7.50;4.93;;;;;;;;;;5031833;28;20478;-55
2023/09/13 01:38:04;;;;;;;5.03;4.53;;;;;;;;;;5031434;28;20462;-55
2023/09/13 01:40:33;;;;;;;6.07;4.73;;;;;;;;;;5031334;28;20482;-55
2023/09/13 01:43:01;;;;;;;9.63;4.83;;;;;;;;;;5031727;28;20448;-56
2023/09/13 01:45:29;;;;;;;5.10;4.60;;;;;;;;;;5031945;28;20524;-55
2023/09/13 01:47:58;;;;;;;5.60;4.37;;;;;;;;;;5031398;28;20496;-54
2023/09/13 01:50:25;;;;;;;5.20;4.40;;;;;;;;;;5031463;28;20525;-55
2023/09/13 01:52:53;;;;;;;10.93;4.73;;;;;;;;;;5031504;28;20446;-54
2023/09/13 01:55:20;;;;;;;5.97;5.33;;;;;;;;;;5031206;28;20469;-55
2023/09/13 01:57:47;;;;;;;5.50;4.17;;;;;;;;;;5031052;28;20868;-55
2023/09/13 02:00:15;;;;;;;6.07;4.27;;;;;;;;;;5031036;28;20524;-55
2023/09/13 02:02:42;;;;;;;5.80;4.47;;;;;;;;;;5031307;28;20446;-54
2023/09/13 02:05:11;;;;;;;5.47;4.30;;;;;;;;;;5031178;28;20540;-54
2023/09/13 02:07:38;;;;;;;6.07;4.57;;;;;;;;;;5030807;28;20949;-56
2023/09/13 02:10:06;;;;;;;5.70;4.73;;;;;;;;;;5031066;28;20518;-54
2023/09/13 02:12:33;;;;;;;6.00;4.40;;;;;;;;;;5031232;28;20478;-55
2023/09/13 02:15:00;;;;;;;5.80;4.47;;;;;;;;;;5031178;28;20477;-54
2023/09/13 02:17:27;;;;;;;5.57;5.00;;;;;;;;;;5030558;28;20507;-55
2023/09/13 02:19:55;;;;;;;6.43;4.17;;;;;;;;;;5030783;28;20505;-55
2023/09/13 02:22:23;;;;;;;5.10;3.83;;;;;;;;;;5031178;28;20867;-55
2023/09/13 02:24:50;;;;;;;6.57;4.03;;;;;;;;;;5030937;28;20450;-54
2023/09/13 02:27:18;;;;;;;5.00;4.27;;;;;;;;;;5030658;28;20587;-54
2023/09/13 02:29:45;;;;;;;9.30;5.40;;;;;;;;;;5030486;28;20730;-57
2023/09/13 02:32:12;;;;;;;7.70;4.30;;;;;;;;;;5030518;28;20478;-56
2023/09/13 02:34:39;;;;;;;4.80;3.50;;;;;;;;;;5030907;28;20443;-55
2023/09/13 02:37:07;;;;;;;5.40;4.03;;;;;;;;;;5030596;28;20509;-56
2023/09/13 02:39:36;;;;;;;6.30;4.40;;;;;;;;;;5030417;28;20458;-54
2023/09/13 02:42:04;;;;;;;4.80;3.80;;;;;;;;;;5023771;28;20442;-56
2023/09/13 02:44:31;;;;;;;5.37;3.93;;;;;;;;;;5030709;28;20474;-56
2023/09/13 02:46:58;;;;;;;5.20;3.87;;;;;;;;;;5030354;28;20438;-56
2023/09/13 02:49:26;;;;;;;9.53;4.20;;;;;;;;;;5030454;28;20478;-58
2023/09/13 02:51:53;;;;;;;5.10;4.10;;;;;;;;;;5030417;28;20478;-56
2023/09/13 02:54:20;;;;;;;5.53;3.97;;;;;;;;;;5030505;28;20534;-55
2023/09/13 02:56:50;;;;;;;7.23;4.70;;;;;;;;;;5030255;28;20829;-54
2023/09/13 02:59:17;;;;;;;5.27;4.60;;;;;;;;;;5030225;28;20502;-55
2023/09/13 03:01:45;;;;;;;7.87;4.40;;;;;;;;;;5030319;28;20584;-55
2023/09/13 03:04:12;;;;;;;6.00;4.87;;;;;;;;;;5030067;28;20820;-54
2023/09/13 03:06:40;;;;;;;5.03;4.53;;;;;;;;;;5030003;28;20446;-55
2023/09/13 03:09:08;;;;;;;4.63;4.03;;;;;;;;;;5049344;23;20534;-89
2023/09/13 03:11:37;;;;;;;4.60;3.50;;;;;;;;;;5052021;28;20483;-88
2023/09/13 03:14:06;;;;;;;4.93;3.50;;;;;;;;;;5052285;28;20484;-88
2023/09/13 03:16:33;;;;;;;4.97;4.27;;;;;;;;;;5052160;28;20445;-88
2023/09/13 03:19:01;;;;;;;5.13;3.93;;;;;;;;;;5034806;28;20520;-88
2023/09/13 03:21:28;;;;;;;4.30;3.47;;;;;;;;;;5040368;28;20492;-87
2023/09/13 03:23:55;;;;;;;5.80;4.03;;;;;;;;;;5058576;22;20596;-58
2023/09/13 03:26:23;;;;;;;6.23;4.40;;;;;;;;;;5029876;28;20442;-58
2023/09/13 03:28:51;;;;;;;7.97;3.63;;;;;;;;;;5030176;28;20497;-58
2023/09/13 03:31:21;;;;;;;4.27;3.20;;;;;;;;;;5029858;28;20528;-58
2023/09/13 03:33:49;;;;;;;4.97;3.40;;;;;;;;;;5029952;28;20438;-58
2023/09/13 03:36:17;;;;;;;5.53;4.50;;;;;;;;;;5029615;28;20485;-58
2023/09/13 03:38:45;;;;;;;9.00;5.17;;;;;;;;;;5029939;28;20446;-58
2023/09/13 03:41:13;;;;;;;5.47;4.13;;;;;;;;;;5030214;28;20661;-57
2023/09/13 03:43:41;;;;;;;6.30;4.73;;;;;;;;;;5029683;28;20454;-58
2023/09/13 03:46:08;;;;;;;4.80;4.00;;;;;;;;;;5029719;28;20508;-57
2023/09/13 03:48:38;;;;;;;7.60;4.70;;;;;;;;;;5029682;28;20898;-58
2023/09/13 03:51:05;;;;;;;5.70;4.50;;;;;;;;;;5029959;28;20490;-58
2023/09/13 03:53:32;;;;;;;6.07;4.53;;;;;;;;;;5029787;28;21004;-58
2023/09/13 03:56:00;;;;;;;5.10;4.60;;;;;;;;;;5029836;28;20944;-58
2023/09/13 03:58:28;;;;;;;4.57;4.10;;;;;;;;;;5029821;28;20446;-58
2023/09/13 04:00:56;;;;;;;4.90;4.37;;;;;;;;;;5029736;28;20458;-59
2023/09/13 04:03:24;;;;;;;6.33;4.90;;;;;;;;;;5029902;28;20875;-58
2023/09/13 04:05:52;;;;;;;6.40;4.70;;;;;;;;;;5029521;28;20446;-58
2023/09/13 04:08:20;;;;;;;6.70;4.80;;;;;;;;;;5029854;28;20537;-58
2023/09/13 04:10:47;;;;;;;8.13;5.30;;;;;;;;;;5029597;28;20991;-58
2023/09/13 04:13:15;;;;;;;7.00;4.30;;;;;;;;;;5029667;28;20478;-58
2023/09/13 04:15:44;;;;;;;9.67;5.00;;;;;;;;;;5029057;28;20538;-58
2023/09/13 04:18:11;;;;;;;5.70;5.10;;;;;;;;;;5033124;28;20533;-58
2023/09/13 04:20:38;;;;;;;6.60;4.80;;;;;;;;;;5033308;28;20458;-58
2023/09/13 04:23:07;;;;;;;6.90;5.40;;;;;;;;;;5033013;28;20446;-58
2023/09/13 04:25:36;;;;;;;6.40;4.60;;;;;;;;;;5033087;28;20523;-58
2023/09/13 04:28:03;;;;;;;7.33;4.70;;;;;;;;;;5032450;28;20448;-58
2023/09/13 04:30:31;;;;;;;6.17;4.30;;;;;;;;;;5033061;28;20486;-58
2023/09/13 04:32:59;;;;;;;4.67;3.97;;;;;;;;;;5033374;28;20493;-58
2023/09/13 04:35:26;;;;;;;7.63;4.67;;;;;;;;;;5033171;28;20438;-58
2023/09/13 04:37:53;;;;;;;4.57;3.73;;;;;;;;;;5032354;28;20984;-57
2023/09/13 04:40:22;;;;;;;6.47;3.90;;;;;;;;;;5032730;28;20469;-58
2023/09/13 04:42:52;;;;;;;5.60;3.70;;;;;;;;;;5032786;28;20901;-57
2023/09/13 04:45:19;;;;;;;7.50;4.50;;;;;;;;;;5032919;28;20447;-58
2023/09/13 04:47:46;;;;;;;6.23;5.60;;;;;;;;;;5032489;28;20454;-58
2023/09/13 04:50:14;;;;;;;5.97;5.20;;;;;;;;;;5032315;28;20521;-58
2023/09/13 04:52:41;;;;;;;9.77;5.60;;;;;;;;;;5032411;28;20489;-58
2023/09/13 04:55:08;;;;;;;6.97;5.17;;;;;;;;;;5032484;28;20474;-58
2023/09/13 04:57:37;;;;;;;6.10;4.73;;;;;;;;;;5032214;28;20481;-57
2023/09/13 05:00:07;;;;;;;5.60;5.00;;;;;;;;;;5025252;28;20999;-57
2023/09/13 05:02:34;;;;;;;5.57;4.70;;;;;;;;;;5031073;28;20438;-58
2023/09/13 05:05:02;;;;;;;6.30;5.03;;;;;;;;;;5030381;28;20474;-58
2023/09/13 05:07:29;;;;;;;4.50;3.90;;;;;;;;;;5029776;28;20524;-58
2023/09/13 05:09:56;;;;;;;9.60;4.50;;;;;;;;;;5031334;28;20523;-58
2023/09/13 05:12:24;;;;;;;5.13;4.30;;;;;;;;;;5030186;28;20544;-57
2023/09/13 05:14:52;;;;;;;4.80;3.97;;;;;;;;;;5031214;28;20553;-58
2023/09/13 05:17:19;;;;;;;6.67;5.60;;;;;;;;;;5030684;28;20438;-58
2023/09/13 05:19:47;;;;;;;5.90;4.73;;;;;;;;;;5029868;28;20549;-58
2023/09/13 05:22:14;;;;;;;7.87;4.73;;;;;;;;;;5030380;28;20443;-57
2023/09/13 05:24:41;;;;;;;5.73;4.57;;;;;;;;;;5029880;28;20938;-58
2023/09/13 05:27:08;;;;;;;6.23;4.50;;;;;;;;;;5029316;28;20921;-58
2023/09/13 05:29:36;;;;;;;5.00;4.30;;;;;;;;;;5029861;28;20536;-58
2023/09/13 05:32:04;;;;;;;7.07;5.13;;;;;;;;;;5029789;28;20513;-58
2023/09/13 05:34:32;;;;;;;6.20;4.87;;;;;;;;;;5031438;28;20540;-58
2023/09/13 05:36:59;;;;;;;6.90;5.10;;;;;;;;;;5031360;28;20479;-58
2023/09/13 05:39:26;;;;;;;7.10;4.20;;;;;;;;;;5031651;28;20540;-58
2023/09/13 05:41:54;;;;;;;7.90;4.83;;;;;;;;;;5031787;28;20537;-57
2023/09/13 05:44:23;;;;;;;6.20;4.97;;;;;;;;;;5031766;28;20452;-57
2023/09/13 05:46:52;;;;;;;7.53;4.83;;;;;;;;;;5030598;28;20960;-58
2023/09/13 05:49:21;;;;;;;8.37;5.50;;;;;;;;;;5031135;28;20488;-57
2023/09/13 05:51:48;;;;;;;6.17;4.97;;;;;;;;;;5031560;28;21016;-57
2023/09/13 05:54:15;;;;;;;7.27;6.50;;;;;;;;;;5031270;28;20470;-58
2023/09/13 05:56:43;;;;;;;7.73;5.30;;;;;;;;;;5030138;28;20478;-57
2023/09/13 05:59:10;;;;;;;7.50;4.60;;;;;;;;;;5030729;28;20494;-57
2023/09/13 06:01:38;;;;;;;9.10;4.83;;;;;;;;;;5031332;28;20472;-58
2023/09/13 06:04:07;;;;;;;6.80;4.80;;;;;;;;;;5024596;28;20438;-57
2023/09/13 06:06:36;;;;;;;9.10;3.73;;;;;;;;;;5031089;28;20805;-58
2023/09/13 06:09:03;;;;;;;5.47;4.30;;;;;;;;;;5030303;28;20533;-58
2023/09/13 06:11:31;;;;;;;4.23;3.30;;;;;;;;;;5029556;28;20490;-58
2023/09/13 06:13:58;;;;;;;11.70;3.93;;;;;;;;;;5029548;28;20549;-58
2023/09/13 06:16:25;;;;;;;6.30;4.70;;;;;;;;;;5029869;28;20477;-57
2023/09/13 06:18:52;;;;;;;6.03;4.07;;;;;;;;;;5029853;28;20543;-58
2023/09/13 06:21:20;;;;;;;7.30;5.20;;;;;;;;;;5030419;28;20515;-58
2023/09/13 06:23:49;;;;;;;5.23;4.73;;;;;;;;;;5030476;28;20482;-57
2023/09/13 06:26:16;;;;;;;6.90;5.90;;;;;;;;;;5031374;28;20920;-57
2023/09/13 06:28:44;;;;;;;7.30;5.60;;;;;;;;;;5030324;28;20478;-57
2023/09/13 06:31:11;;;;;;;6.23;4.93;;;;;;;;;;5031114;28;20544;-58
2023/09/13 06:33:38;;;;;;;6.00;5.47;;;;;;;;;;5030553;28;20505;-58
2023/09/13 06:36:06;;;;;;;7.30;6.27;;;;;;;;;;5030671;28;20513;-58
2023/09/13 06:38:33;;;;;;;6.10;5.50;;;;;;;;;;5030021;28;20438;-58
2023/09/13 06:41:02;;;;;;;6.33;5.50;;;;;;;;;;5030111;28;20498;-58
2023/09/13 06:43:29;;;;;;;6.40;5.60;;;;;;;;;;5030851;28;20519;-58
2023/09/13 06:45:56;;;;;;;5.83;4.83;;;;;;;;;;5030516;28;20496;-58
2023/09/13 06:48:24;;;;;;;6.13;4.80;;;;;;;;;;5030390;28;20496;-58
2023/09/13 06:50:51;;;;;;;8.50;5.27;;;;;;;;;;5029953;28;20912;-57
2023/09/13 06:53:18;;;;;;;7.40;5.20;;;;;;;;;;5029471;28;20528;-57
2023/09/13 06:55:48;;;;;;;6.37;4.83;;;;;;;;;;5030066;28;20503;-59
2023/09/13 06:58:16;;;;;;;5.17;4.67;;;;;;;;;;5030413;28;20478;-58
2023/09/13 07:00:44;;;;;;;6.00;4.57;;;;;;;;;;5030078;28;20885;-57
2023/09/13 07:03:11;;;;;;;5.93;4.73;;;;;;;;;;5030362;28;20466;-58
2023/09/13 07:05:38;;;;;;;5.53;4.33;;;;;;;;;;5028452;28;20446;-58
2023/09/13 07:08:06;;;;;;;8.57;5.13;;;;;;;;;;5029850;28;20477;-58
2023/09/13 07:10:33;;;;;;;6.37;4.97;;;;;;;;;;5030519;28;20465;-57
2023/09/13 07:13:02;;;;;;;5.50;4.97;;;;;;;;;;5030138;28;20449;-57
2023/09/13 07:15:31;;;;;;;5.10;4.00;;;;;;;;;;5029821;28;20442;-58
2023/09/13 07:17:58;;;;;;;6.10;4.63;;;;;;;;;;5029137;28;20486;-58
2023/09/13 07:20:25;;;;;;;6.00;4.70;;;;;;;;;;5029924;28;20466;-58
2023/09/13 07:22:53;;;;;;;6.00;4.77;;;;;;;;;;5027005;28;20474;-58
2023/09/13 07:25:21;;;;;;;5.47;4.03;;;;;;;;;;5029716;28;20457;-57
2023/09/13 07:27:48;;;;;;;5.40;4.57;;;;;;;;;;5029657;28;20806;-57
2023/09/13 07:30:15;;;;;;;5.80;4.90;;;;;;;;;;5029401;28;20527;-58
2023/09/13 07:32:44;;;;;;;6.10;4.63;;;;;;;;;;5028898;28;21293;-58
2023/09/13 07:35:11;;;;;;;5.40;4.10;;;;;;;;;;5029573;28;20478;-58
2023/09/13 07:37:38;;;;;;;5.40;4.87;;;;;;;;;;5029854;28;20484;-58
2023/09/13 07:40:06;;;;;;;5.67;5.17;;;;;;;;;;5029630;28;20474;-58
2023/09/13 07:42:33;;;;;;;5.53;4.93;;;;;;;;;;5029873;28;20964;-58
2023/09/13 07:45:00;;;;;;;7.80;4.27;;;;;;;;;;5029245;28;20500;-58
2023/09/13 07:47:28;;;;;;;7.43;3.83;;;;;;;;;;5027146;28;20457;-58
2023/09/13 07:49:59;;;;;;;5.47;4.20;;;;;;;;;;5030489;28;20469;-58
2023/09/13 07:52:27;;;;;;;6.20;4.57;;;;;;;;;;5034511;28;20513;-58
2023/09/13 07:54:54;;;;;;;5.50;4.93;;;;;;;;;;5032979;28;20496;-58
2023/09/13 07:57:22;;;;;;;6.30;5.03;;;;;;;;;;5033064;28;20520;-57
2023/09/13 07:59:49;;;;;;;6.00;4.53;;;;;;;;;;5031738;28;20548;-57
2023/09/13 08:02:16;;;;;;;5.83;4.23;;;;;;;;;;5032491;28;20778;-58
2023/09/13 08:04:43;;;;;;;6.87;5.00;;;;;;;;;;5032504;28;20952;-57
2023/09/13 08:07:12;;;;;;;6.60;4.67;;;;;;;;;;5031679;28;20552;-58
2023/09/13 08:09:39;;;;;;;6.00;4.30;;;;;;;;;;5032625;28;20611;-58
2023/09/13 08:12:06;;;;;;;4.83;3.83;;;;;;;;;;5032060;28;20520;-57
2023/09/13 08:14:34;;;;;;;5.80;4.40;;;;;;;;;;5032585;28;20434;-58
2023/09/13 08:17:01;;;;;;;5.57;4.30;;;;;;;;;;5032180;28;21093;-58
2023/09/13 08:19:28;;;;;;;5.73;4.50;;;;;;;;;;5031279;28;20473;-58
2023/09/13 08:21:56;;;;;;;6.70;3.90;;;;;;;;;;5031496;28;20985;-58
2023/09/13 08:24:24;;;;;;;6.17;4.13;;;;;;;;;;5032176;28;20478;-58
2023/09/13 08:26:51;;;;;;;4.60;4.20;;;;;;;;;;5032166;28;20465;-58
2023/09/13 08:29:19;;;;;;;5.90;4.77;;;;;;;;;;5030990;28;20506;-58
2023/09/13 08:31:46;;;;;;;5.73;4.43;;;;;;;;;;5032395;28;20510;-58
2023/09/13 08:34:13;;;;;;;5.63;3.93;;;;;;;;;;5032420;28;20438;-59
2023/09/13 08:36:40;;;;;;;6.73;4.50;;;;;;;;;;5030449;28;20544;-59
2023/09/13 08:39:08;;;;;;;6.00;4.73;;;;;;;;;;5032176;28;20443;-58
2023/09/13 08:41:36;;;;;;;6.70;4.90;;;;;;;;;;5032445;28;20588;-58
2023/09/13 08:44:05;;;;;;;6.80;4.37;;;;;;;;;;5031671;28;20470;-58
2023/09/13 08:46:33;;;;;;;5.47;4.40;;;;;;;;;;5031621;28;20470;-58
2023/09/13 08:49:00;;;;;;;6.43;4.00;;;;;;;;;;5030680;28;20484;-58
2023/09/13 08:51:29;;;;;;;5.60;3.97;;;;;;;;;;5031982;28;20509;-58
2023/09/13 08:53:56;;;;;;;5.33;4.70;;;;;;;;;;5031028;28;20835;-59
2023/09/13 08:56:25;;;;;;;6.20;4.97;;;;;;;;;;5031275;28;20434;-57
2023/09/13 08:58:54;;;;;;;5.50;4.80;;;;;;;;;;5031211;28;20525;-58
2023/09/13 09:01:23;;;;;;;6.30;4.50;;;;;;;;;;5029598;28;20482;-58
2023/09/13 09:03:51;;;;;;;5.47;4.93;;;;;;;;;;5031004;28;20478;-58
2023/09/13 09:06:19;;;;;;;5.50;4.27;;;;;;;;;;5031403;28;20438;-57
2023/09/13 09:08:47;;;;;;;4.40;4.00;;;;;;;;;;5031071;28;20443;-58
2023/09/13 09:11:14;;;;;;;5.60;4.27;;;;;;;;;;5100034;22;20493;-58
2023/09/13 09:13:43;;;;;;;4.83;4.40;;;;;;;;;;5051220;28;20472;-55
2023/09/13 09:16:12;;;;;;;5.37;4.67;;;;;;;;;;5051296;28;20523;-54
2023/09/13 09:18:40;;;;;;;6.03;4.60;;;;;;;;;;5049239;28;20487;-56
2023/09/13 09:21:08;;;;;;;7.80;5.47;;;;;;;;;;5051128;28;20489;-56
2023/09/13 09:23:38;;;;;;;6.03;5.40;;;;;;;;;;5049484;28;20828;-56
2023/09/13 09:26:05;;;;;;;6.93;5.13;;;;;;;;;;5048500;28;20524;-56
2023/09/13 09:28:32;;;;;;;7.00;5.60;;;;;;;;;;5050815;28;20465;-56
2023/09/13 09:31:02;;;;;;;6.73;5.50;;;;;;;;;;5046023;28;20542;-56
2023/09/13 09:33:31;;;;;;;5.97;5.17;;;;;;;;;;5044797;28;20449;-55
2023/09/13 09:35:59;;;;;;;6.63;5.00;;;;;;;;;;5049846;28;21140;-54
2023/09/13 09:38:27;;;;;;;6.73;4.43;;;;;;;;;;5047926;28;20477;-57
2023/09/13 09:40:57;;;;;;;7.20;4.73;;;;;;;;;;5050780;28;20453;-55
2023/09/13 09:43:24;;;;;;;5.57;4.83;;;;;;;;;;5051010;28;20437;-57
2023/09/13 09:45:51;;;;;;;6.20;4.57;;;;;;;;;;5050853;28;20465;-56
2023/09/13 09:48:19;;;;;;;6.60;5.50;;;;;;;;;;5051111;28;20445;-54
2023/09/13 09:50:49;;;;;;;5.40;4.80;;;;;;;;;;5050836;28;20488;-56
2023/09/13 09:53:17;;;;;;;7.13;4.87;;;;;;;;;;5049177;28;20513;-57
2023/09/13 09:55:44;;;;;;;7.23;4.90;;;;;;;;;;5051089;28;20816;-56
2023/09/13 09:58:12;;;;;;;6.47;4.53;;;;;;;;;;5050785;28;20465;-56
2023/09/13 10:00:49;;;;;;;8.57;5.73;;;;;;;;;;5050743;28;20517;-56
2023/09/13 10:03:18;;;;;;;7.13;6.33;;;;;;;;;;5050415;28;20468;-57
2023/09/13 10:05:57;;;;;;;5.80;5.07;;;;;;;;;;5050531;28;20442;-56
2023/09/13 10:08:43;;;;;;;7.43;4.50;;;;;;;;;;5050528;28;20545;-56
2023/09/13 10:11:11;;;;;;;6.90;5.07;;;;;;;;;;5045178;28;20472;-54
2023/09/13 10:13:39;;;;;;;8.17;6.00;;;;;;;;;;5050127;28;20826;-56
2023/09/13 10:16:07;;;;;;;7.50;6.13;;;;;;;;;;5050363;28;20621;-55
2023/09/13 10:18:38;;;;;;;7.43;6.43;;;;;;;;;;5050170;28;20469;-55
2023/09/13 10:21:07;;;;;;;8.60;6.17;;;;;;;;;;5049303;28;20981;-54
2023/09/13 10:23:40;;;;;;;9.80;7.57;;;;;;;;;;5050769;28;20437;-55
2023/09/13 10:26:09;;;;;;;7.80;7.10;;;;;;;;;;5050015;28;20434;-55
2023/09/13 10:28:37;;;;;;;7.80;6.67;;;;;;;;;;5049813;28;20441;-55
2023/09/13 10:31:06;;;;;;;8.50;7.43;;;;;;;;;;5050386;28;20460;-55
2023/09/13 10:33:36;;;;;;;7.87;7.07;;;;;;;;;;5049406;28;20513;-54
2023/09/13 10:36:04;;;;;;;10.47;7.73;;;;;;;;;;5049238;28;20535;-55
2023/09/13 10:38:39;;;;;;;7.80;7.00;;;;;;;;;;5048474;28;20522;-55
2023/09/13 10:41:07;;;;;;;6.50;5.80;;;;;;;;;;5049842;28;20492;-54
2023/09/13 10:43:35;;;;;;;6.73;6.00;;;;;;;;;;5043271;28;20452;-54
2023/09/13 10:46:03;;;;;;;6.20;5.50;;;;;;;;;;5049526;28;20473;-55
2023/09/13 10:48:31;;;;;;;7.00;5.60;;;;;;;;;;5049700;28;20638;-58
2023/09/13 10:50:59;;;;;;;11.50;6.70;;;;;;;;;;5050355;28;20485;-54
2023/09/13 10:53:27;;;;;;;6.70;5.10;;;;;;;;;;5048768;28;20582;-54
2023/09/13 10:55:56;;;;;;;7.30;6.50;;;;;;;;;;5048858;28;20465;-55
2023/09/13 10:58:23;;;;;;;7.57;6.57;;;;;;;;;;5045720;28;20496;-55
2023/09/13 11:00:53;;;;;;;7.20;6.00;;;;;;;;;;5049831;28;20504;-55
2023/09/13 11:03:20;;;;;;;7.00;5.70;;;;;;;;;;5050282;28;20444;-57
2023/09/13 11:05:49;;;;;;;9.07;7.67;;;;;;;;;;5043275;28;20987;-55
2023/09/13 11:08:26;;;;;;;7.87;7.07;;;;;;;;;;5048863;28;20562;-56
2023/09/13 11:10:56;;;;;;;8.10;6.87;;;;;;;;;;5049425;28;20461;-56
2023/09/13 11:13:30;;;;;;;8.33;6.80;;;;;;;;;;5049133;28;20492;-55
2023/09/13 11:16:01;;;;;;;7.97;7.17;;;;;;;;;;5047836;28;20457;-57
2023/09/13 11:18:28;;;;;;;8.23;7.43;;;;;;;;;;5046200;28;20433;-54
2023/09/13 11:20:56;;;;;;;9.23;7.10;;;;;;;;;;5041809;28;20512;-54
2023/09/13 11:23:24;;;;;;;8.37;6.90;;;;;;;;;;5048588;28;20442;-57
2023/09/13 11:25:53;;;;;;;7.10;6.50;;;;;;;;;;5050829;28;20869;-54
2023/09/13 11:28:33;;;;;;;7.90;6.10;;;;;;;;;;5053085;28;20445;-54
2023/09/13 11:31:01;;;;;;;10.77;7.03;;;;;;;;;;5053711;28;20496;-54
2023/09/13 11:33:29;;;;;;;7.10;6.33;;;;;;;;;;5050001;28;20535;-54
2023/09/13 11:35:57;;;;;;;7.07;6.30;;;;;;;;;;5049705;28;20534;-56
2023/09/13 11:38:26;;;;;;;8.30;6.00;;;;;;;;;;5053585;28;20429;-54
2023/09/13 11:40:56;;;;;;;9.00;7.70;;;;;;;;;;5052942;28;20485;-56
2023/09/13 11:43:24;;;;;;;9.80;7.37;;;;;;;;;;5053390;28;20433;-54
2023/09/13 11:45:53;;;;;;;8.30;7.50;;;;;;;;;;5053290;28;20445;-55
2023/09/13 11:48:29;;;;;;;8.50;6.83;;;;;;;;;;5049597;28;20493;-54
2023/09/13 11:50:57;;;;;;;7.20;6.40;;;;;;;;;;5046779;28;20487;-55
2023/09/13 11:53:28;;;;;;;8.20;7.13;;;;;;;;;;5051960;28;20501;-56
2023/09/13 11:55:56;;;;;;;7.20;6.50;;;;;;;;;;5050927;28;20511;-54
2023/09/13 11:58:32;;;;;;;7.80;7.00;;;;;;;;;;5051312;28;20469;-55
2023/09/13 12:01:01;;;;;;;8.93;6.50;;;;;;;;;;5052302;28;20468;-55
2023/09/13 12:03:29;;;;;;;7.07;6.20;;;;;;;;;;5053205;28;20572;-54
2023/09/13 12:05:57;;;;;;;7.90;7.10;;;;;;;;;;5052024;28;20457;-55
2023/09/13 12:08:27;;;;;;;7.77;7.00;;;;;;;;;;5049658;28;20539;-54
2023/09/13 12:10:55;;;;;;;7.37;6.67;;;;;;;;;;5052395;28;20547;-57
2023/09/13 12:13:22;;;;;;;9.60;7.40;;;;;;;;;;5049612;28;20512;-54
2023/09/13 12:16:02;;;;;;;8.50;7.70;;;;;;;;;;5050707;28;20454;-53
2023/09/13 12:18:30;;;;;;;8.10;6.53;;;;;;;;;;5052816;28;20445;-54
2023/09/13 12:20:58;;;;;;;10.17;7.83;;;;;;;;;;5052131;28;21009;-54
2023/09/13 12:23:26;;;;;;;7.67;6.87;;;;;;;;;;5052873;28;20518;-57
2023/09/13 12:25:53;;;;;;;10.93;7.63;;;;;;;;;;5048203;28;20547;-56
2023/09/13 12:28:27;;;;;;;10.70;8.00;;;;;;;;;;5052593;28;20600;-56
2023/09/13 12:30:54;;;;;;;8.73;7.30;;;;;;;;;;5048748;28;20472;-55
2023/09/13 12:33:24;;;;;;;8.23;7.40;;;;;;;;;;5050985;28;20509;-56
2023/09/13 12:35:52;;;;;;;7.90;7.10;;;;;;;;;;5048047;28;20827;-54
2023/09/13 12:38:19;;;;;;;8.97;7.13;;;;;;;;;;5051421;28;20507;-54
2023/09/13 12:40:55;;;;;;;11.00;7.80;;;;;;;;;;5052755;28;20465;-55
2023/09/13 12:43:27;;;;;;;9.40;8.50;;;;;;;;;;5052900;28;20449;-55
2023/09/13 12:45:55;;;;;;;8.80;7.00;;;;;;;;;;5051757;28;20476;-56
2023/09/13 12:48:25;;;;;;;8.67;7.50;;;;;;;;;;5052445;28;20885;-56
2023/09/13 12:50:52;;;;;;;7.57;6.77;;;;;;;;;;5052212;28;20491;-56
2023/09/13 12:53:19;;;;;;;7.70;6.80;;;;;;;;;;5052818;28;20484;-55
2023/09/13 12:55:47;;;;;;;8.43;7.53;;;;;;;;;;5052255;28;20503;-56
2023/09/13 12:58:14;;;;;;;9.17;7.77;;;;;;;;;;5052710;28;20476;-55
2023/09/13 13:00:52;;;;;;;8.80;7.63;;;;;;;;;;5052303;28;20550;-57
2023/09/13 13:03:19;;;;;;;8.13;7.33;;;;;;;;;;5052566;28;20502;-56
2023/09/13 13:05:50;;;;;;;7.60;6.67;;;;;;;;;;5052292;28;20504;-56
2023/09/13 13:08:18;;;;;;;8.13;7.43;;;;;;;;;;5052161;28;21013;-55
2023/09/13 13:10:58;;;;;;;9.03;7.17;;;;;;;;;;5052088;28;20500;-57
2023/09/13 13:13:32;;;;;;;10.20;8.33;;;;;;;;;;5052425;28;20507;-56
2023/09/13 13:15:59;;;;;;;8.80;7.90;;;;;;;;;;5052097;28;20830;-54
2023/09/13 13:18:27;;;;;;;9.10;7.63;;;;;;;;;;5052158;28;20469;-54
2023/09/13 13:20:55;;;;;;;10.53;6.90;;;;;;;;;;5051951;28;20493;-55
2023/09/13 13:23:23;;;;;;;8.97;8.07;;;;;;;;;;5052216;28;20442;-55
2023/09/13 13:25:51;;;;;;;7.87;7.07;;;;;;;;;;5051911;28;20459;-54
2023/09/13 13:28:19;;;;;;;8.50;7.60;;;;;;;;;;5051851;28;20448;-56
2023/09/13 13:30:48;;;;;;;8.70;7.60;;;;;;;;;;5051894;28;20487;-56
2023/09/13 13:33:15;;;;;;;8.30;6.73;;;;;;;;;;5051908;28;20567;-54
2023/09/13 13:35:43;;;;;;;10.30;8.70;;;;;;;;;;5051879;28;20452;-55
2023/09/13 13:38:13;;;;;;;8.43;7.63;;;;;;;;;;5051644;28;20530;-54
2023/09/13 13:40:40;;;;;;;9.30;8.30;;;;;;;;;;5051860;28;20469;-54
2023/09/13 13:43:08;;;;;;;7.97;7.17;;;;;;;;;;5052013;28;20480;-56
2023/09/13 13:45:35;;;;;;;7.00;6.30;;;;;;;;;;5051609;28;20939;-55
2023/09/13 13:48:02;;;;;;;8.03;6.63;;;;;;;;;;5051327;28;20477;-56
2023/09/13 13:50:29;;;;;;;8.67;7.77;;;;;;;;;;5051864;28;20504;-54
2023/09/13 13:52:57;;;;;;;8.50;7.03;;;;;;;;;;5051603;28;20917;-54
2023/09/13 13:55:25;;;;;;;8.30;7.23;;;;;;;;;;5051310;28;20499;-55
2023/09/13 13:57:52;;;;;;;8.23;7.33;;;;;;;;;;5051140;28;20989;-54
2023/09/13 14:00:20;;;;;;;7.10;6.27;;;;;;;;;;5051211;28;20493;-55
2023/09/13 14:02:47;;;;;;;8.53;7.00;;;;;;;;;;5051416;28;20445;-56
2023/09/13 14:05:15;;;;;;;8.67;7.20;;;;;;;;;;5051423;28;20846;-54
2023/09/13 14:07:42;;;;;;;7.73;6.93;;;;;;;;;;5051125;28;20451;-56
2023/09/13 14:10:09;;;;;;;6.87;6.20;;;;;;;;;;5051257;28;20501;-54
2023/09/13 14:12:38;;;;;;;7.53;6.30;;;;;;;;;;5050932;28;20441;-56
2023/09/13 14:15:06;;;;;;;7.33;6.47;;;;;;;;;;5050921;28;20926;-54
2023/09/13 14:17:33;;;;;;;7.53;6.73;;;;;;;;;;5050937;28;20465;-54
2023/09/13 14:20:01;;;;;;;8.10;7.30;;;;;;;;;;5051037;28;20566;-55
2023/09/13 14:22:28;;;;;;;8.37;6.93;;;;;;;;;;5051118;28;20862;-55
2023/09/13 14:24:55;;;;;;;10.13;8.20;;;;;;;;;;5050866;28;20509;-54
2023/09/13 14:27:24;;;;;;;7.47;6.63;;;;;;;;;;5050533;28;20567;-55
2023/09/13 14:29:52;;;;;;;8.23;6.57;;;;;;;;;;5050833;28;20469;-55
2023/09/13 14:32:20;;;;;;;9.47;7.20;;;;;;;;;;5050607;28;20491;-55
2023/09/13 14:34:52;;;;;;;8.83;7.60;;;;;;;;;;5051091;28;20572;-55
2023/09/13 14:37:19;;;;;;;10.07;8.30;;;;;;;;;;5050341;28;20492;-54
2023/09/13 14:39:47;;;;;;;8.43;7.00;;;;;;;;;;5050401;28;20493;-55
2023/09/13 14:42:14;;;;;;;8.40;7.07;;;;;;;;;;5050690;28;20455;-56
2023/09/13 14:44:41;;;;;;;10.53;6.97;;;;;;;;;;5050616;28;20437;-56
2023/09/13 14:47:10;;;;;;;7.90;7.00;;;;;;;;;;5050404;28;20871;-54
2023/09/13 14:49:37;;;;;;;8.53;7.17;;;;;;;;;;5050483;28;20473;-54